sensor_id;sensor_type;location;lat;lon;timestamp;P1;durP1;ratioP1;P2;durP2;ratioP2
21661;SDS011;10992;48.170;8.596;2023-03-23T00:01:21;3.13;;;2.05;;
21661;SDS011;10992;48.170;8.596;2023-03-23T00:03:50;2.38;;;1.73;;
21661;SDS011;10992;48.170;8.596;2023-03-23T00:06:18;3.38;;;1.77;;
21661;SDS011;10992;48.170;8.596;2023-03-23T00:08:49;2.95;;;1.98;;
21661;SDS011;10992;48.170;8.596;2023-03-23T00:11:23;2.13;;;1.33;;
21661;SDS011;10992;48.170;8.596;2023-03-23T00:13:52;3.95;;;1.70;;
21661;SDS011;10992;48.170;8.596;2023-03-23T00:16:23;3.20;;;1.75;;
21661;SDS011;10992;48.170;8.596;2023-03-23T00:19:02;2.53;;;1.48;;
21661;SDS011;10992;48.170;8.596;2023-03-23T00:21:31;2.17;;;1.50;;
21661;SDS011;10992;48.170;8.596;2023-03-23T00:24:03;2.05;;;1.55;;
21661;SDS011;10992;48.170;8.596;2023-03-23T00:26:44;2.10;;;1.50;;
21661;SDS011;10992;48.170;8.596;2023-03-23T00:29:13;2.58;;;1.58;;
21661;SDS011;10992;48.170;8.596;2023-03-23T00:31:42;3.25;;;1.95;;
21661;SDS011;10992;48.170;8.596;2023-03-23T00:34:16;3.33;;;1.80;;
21661;SDS011;10992;48.170;8.596;2023-03-23T00:36:45;2.58;;;1.50;;
21661;SDS011;10992;48.170;8.596;2023-03-23T00:39:12;2.30;;;1.63;;
21661;SDS011;10992;48.170;8.596;2023-03-23T00:41:44;3.35;;;1.48;;
21661;SDS011;10992;48.170;8.596;2023-03-23T00:44:12;2.67;;;1.40;;
21661;SDS011;10992;48.170;8.596;2023-03-23T00:46:49;2.45;;;1.50;;
21661;SDS011;10992;48.170;8.596;2023-03-23T00:49:16;2.15;;;1.58;;
21661;SDS011;10992;48.170;8.596;2023-03-23T00:51:44;4.00;;;1.73;;
21661;SDS011;10992;48.170;8.596;2023-03-23T00:54:10;1.85;;;1.75;;
21661;SDS011;10992;48.170;8.596;2023-03-23T00:56:37;2.67;;;1.75;;
21661;SDS011;10992;48.170;8.596;2023-03-23T00:59:07;3.20;;;1.52;;
21661;SDS011;10992;48.170;8.596;2023-03-23T01:01:33;4.40;;;1.90;;
21661;SDS011;10992;48.170;8.596;2023-03-23T01:03:59;2.80;;;1.60;;
21661;SDS011;10992;48.170;8.596;2023-03-23T01:06:33;3.60;;;2.08;;
21661;SDS011;10992;48.170;8.596;2023-03-23T01:09:07;2.03;;;1.50;;
21661;SDS011;10992;48.170;8.596;2023-03-23T01:11:45;2.38;;;1.60;;
21661;SDS011;10992;48.170;8.596;2023-03-23T01:14:13;2.35;;;1.58;;
21661;SDS011;10992;48.170;8.596;2023-03-23T01:16:41;3.28;;;1.40;;
21661;SDS011;10992;48.170;8.596;2023-03-23T01:19:07;3.65;;;1.67;;
21661;SDS011;10992;48.170;8.596;2023-03-23T01:21:33;3.60;;;1.90;;
21661;SDS011;10992;48.170;8.596;2023-03-23T01:24:00;4.70;;;1.85;;
21661;SDS011;10992;48.170;8.596;2023-03-23T01:26:26;4.53;;;1.77;;
21661;SDS011;10992;48.170;8.596;2023-03-23T01:28:54;2.63;;;1.58;;
21661;SDS011;10992;48.170;8.596;2023-03-23T01:31:21;4.70;;;2.33;;
21661;SDS011;10992;48.170;8.596;2023-03-23T01:33:50;2.78;;;1.80;;
21661;SDS011;10992;48.170;8.596;2023-03-23T01:36:18;2.97;;;1.88;;
21661;SDS011;10992;48.170;8.596;2023-03-23T01:38:47;3.08;;;1.65;;
21661;SDS011;10992;48.170;8.596;2023-03-23T01:41:14;2.30;;;1.35;;
21661;SDS011;10992;48.170;8.596;2023-03-23T01:46:33;2.90;;;1.50;;
21661;SDS011;10992;48.170;8.596;2023-03-23T01:49:02;4.90;;;1.98;;
21661;SDS011;10992;48.170;8.596;2023-03-23T01:51:35;3.28;;;1.42;;
21661;SDS011;10992;48.170;8.596;2023-03-23T01:54:06;2.72;;;1.70;;
21661;SDS011;10992;48.170;8.596;2023-03-23T01:56:40;2.35;;;1.83;;
21661;SDS011;10992;48.170;8.596;2023-03-23T01:59:11;1.77;;;1.40;;
21661;SDS011;10992;48.170;8.596;2023-03-23T02:01:42;2.70;;;1.80;;
21661;SDS011;10992;48.170;8.596;2023-03-23T02:04:13;1.92;;;1.50;;
21661;SDS011;10992;48.170;8.596;2023-03-23T02:06:42;2.20;;;1.70;;
21661;SDS011;10992;48.170;8.596;2023-03-23T02:09:17;1.95;;;1.52;;
21661;SDS011;10992;48.170;8.596;2023-03-23T02:11:45;2.58;;;1.70;;
21661;SDS011;10992;48.170;8.596;2023-03-23T02:14:13;3.90;;;2.05;;
21661;SDS011;10992;48.170;8.596;2023-03-23T02:16:43;4.57;;;2.00;;
21661;SDS011;10992;48.170;8.596;2023-03-23T02:33:41;3.67;;;1.95;;
21661;SDS011;10992;48.170;8.596;2023-03-23T02:36:29;2.65;;;1.60;;
21661;SDS011;10992;48.170;8.596;2023-03-23T02:39:03;1.73;;;1.40;;
21661;SDS011;10992;48.170;8.596;2023-03-23T02:41:38;3.30;;;1.60;;
21661;SDS011;10992;48.170;8.596;2023-03-23T02:44:09;2.92;;;1.88;;
21661;SDS011;10992;48.170;8.596;2023-03-23T02:46:36;2.38;;;1.70;;
21661;SDS011;10992;48.170;8.596;2023-03-23T02:49:03;2.80;;;1.52;;
21661;SDS011;10992;48.170;8.596;2023-03-23T02:51:33;2.85;;;1.42;;
21661;SDS011;10992;48.170;8.596;2023-03-23T02:54:01;2.65;;;1.35;;
21661;SDS011;10992;48.170;8.596;2023-03-23T02:56:30;3.03;;;1.50;;
21661;SDS011;10992;48.170;8.596;2023-03-23T02:59:00;2.28;;;1.42;;
21661;SDS011;10992;48.170;8.596;2023-03-23T03:03:54;3.88;;;1.45;;
21661;SDS011;10992;48.170;8.596;2023-03-23T03:11:59;2.42;;;1.77;;
21661;SDS011;10992;48.170;8.596;2023-03-23T03:14:44;3.95;;;1.60;;
21661;SDS011;10992;48.170;8.596;2023-03-23T03:17:21;3.13;;;1.58;;
21661;SDS011;10992;48.170;8.596;2023-03-23T03:19:51;3.17;;;1.85;;
21661;SDS011;10992;48.170;8.596;2023-03-23T03:22:22;3.85;;;2.00;;
21661;SDS011;10992;48.170;8.596;2023-03-23T03:24:55;2.97;;;1.70;;
21661;SDS011;10992;48.170;8.596;2023-03-23T03:27:23;3.00;;;1.60;;
21661;SDS011;10992;48.170;8.596;2023-03-23T03:30:03;3.78;;;1.83;;
21661;SDS011;10992;48.170;8.596;2023-03-23T03:32:48;2.58;;;1.70;;
21661;SDS011;10992;48.170;8.596;2023-03-23T03:35:21;2.22;;;1.75;;
21661;SDS011;10992;48.170;8.596;2023-03-23T03:37:49;5.18;;;1.77;;
21661;SDS011;10992;48.170;8.596;2023-03-23T03:40:18;2.63;;;1.75;;
21661;SDS011;10992;48.170;8.596;2023-03-23T03:42:45;2.00;;;1.50;;
21661;SDS011;10992;48.170;8.596;2023-03-23T03:45:14;2.60;;;1.73;;
21661;SDS011;10992;48.170;8.596;2023-03-23T03:47:41;2.95;;;2.08;;
21661;SDS011;10992;48.170;8.596;2023-03-23T03:50:08;3.78;;;1.85;;
21661;SDS011;10992;48.170;8.596;2023-03-23T03:52:35;3.03;;;2.03;;
21661;SDS011;10992;48.170;8.596;2023-03-23T03:55:01;2.35;;;1.83;;
21661;SDS011;10992;48.170;8.596;2023-03-23T03:57:30;2.35;;;2.00;;
21661;SDS011;10992;48.170;8.596;2023-03-23T04:00:15;5.18;;;2.33;;
21661;SDS011;10992;48.170;8.596;2023-03-23T04:02:45;4.25;;;2.10;;
21661;SDS011;10992;48.170;8.596;2023-03-23T04:05:19;3.97;;;1.95;;
21661;SDS011;10992;48.170;8.596;2023-03-23T04:07:48;5.78;;;2.58;;
21661;SDS011;10992;48.170;8.596;2023-03-23T04:10:19;4.63;;;2.65;;
21661;SDS011;10992;48.170;8.596;2023-03-23T04:12:53;4.18;;;2.50;;
21661;SDS011;10992;48.170;8.596;2023-03-23T04:15:48;3.38;;;2.53;;
21661;SDS011;10992;48.170;8.596;2023-03-23T04:18:16;3.28;;;2.38;;
21661;SDS011;10992;48.170;8.596;2023-03-23T04:20:45;5.88;;;3.05;;
21661;SDS011;10992;48.170;8.596;2023-03-23T04:23:17;4.07;;;2.67;;
21661;SDS011;10992;48.170;8.596;2023-03-23T04:25:46;5.38;;;3.30;;
21661;SDS011;10992;48.170;8.596;2023-03-23T04:28:13;4.05;;;2.80;;
21661;SDS011;10992;48.170;8.596;2023-03-23T04:30:54;2.83;;;2.08;;
21661;SDS011;10992;48.170;8.596;2023-03-23T04:33:21;4.57;;;2.90;;
21661;SDS011;10992;48.170;8.596;2023-03-23T04:35:52;3.58;;;2.22;;
21661;SDS011;10992;48.170;8.596;2023-03-23T04:38:29;4.15;;;2.58;;
21661;SDS011;10992;48.170;8.596;2023-03-23T04:41:03;5.13;;;2.53;;
21661;SDS011;10992;48.170;8.596;2023-03-23T04:43:49;3.97;;;2.42;;
21661;SDS011;10992;48.170;8.596;2023-03-23T04:46:30;3.53;;;2.20;;
21661;SDS011;10992;48.170;8.596;2023-03-23T04:49:01;5.40;;;2.20;;
21661;SDS011;10992;48.170;8.596;2023-03-23T04:51:34;4.88;;;2.42;;
21661;SDS011;10992;48.170;8.596;2023-03-23T04:54:14;3.83;;;2.28;;
21661;SDS011;10992;48.170;8.596;2023-03-23T04:56:45;4.75;;;2.17;;
21661;SDS011;10992;48.170;8.596;2023-03-23T04:59:13;4.97;;;2.60;;
21661;SDS011;10992;48.170;8.596;2023-03-23T05:02:05;3.40;;;2.17;;
21661;SDS011;10992;48.170;8.596;2023-03-23T05:04:32;3.28;;;2.05;;
21661;SDS011;10992;48.170;8.596;2023-03-23T05:07:10;6.43;;;2.15;;
21661;SDS011;10992;48.170;8.596;2023-03-23T05:09:42;4.43;;;2.38;;
21661;SDS011;10992;48.170;8.596;2023-03-23T05:12:13;4.10;;;2.15;;
21661;SDS011;10992;48.170;8.596;2023-03-23T05:14:51;3.00;;;1.92;;
21661;SDS011;10992;48.170;8.596;2023-03-23T05:17:19;2.60;;;2.22;;
21661;SDS011;10992;48.170;8.596;2023-03-23T05:19:48;5.00;;;2.05;;
21661;SDS011;10992;48.170;8.596;2023-03-23T05:22:32;2.53;;;2.10;;
21661;SDS011;10992;48.170;8.596;2023-03-23T05:25:00;2.75;;;1.70;;
21661;SDS011;10992;48.170;8.596;2023-03-23T05:27:32;4.72;;;2.28;;
21661;SDS011;10992;48.170;8.596;2023-03-23T05:30:04;3.72;;;2.13;;
21661;SDS011;10992;48.170;8.596;2023-03-23T05:32:33;2.95;;;2.40;;
21661;SDS011;10992;48.170;8.596;2023-03-23T05:35:13;4.10;;;2.10;;
21661;SDS011;10992;48.170;8.596;2023-03-23T05:37:39;3.08;;;2.42;;
21661;SDS011;10992;48.170;8.596;2023-03-23T05:40:07;4.38;;;2.72;;
21661;SDS011;10992;48.170;8.596;2023-03-23T05:42:39;4.03;;;2.70;;
21661;SDS011;10992;48.170;8.596;2023-03-23T05:45:14;2.20;;;2.00;;
21661;SDS011;10992;48.170;8.596;2023-03-23T05:47:42;5.28;;;3.00;;
21661;SDS011;10992;48.170;8.596;2023-03-23T05:50:13;6.00;;;4.13;;
21661;SDS011;10992;48.170;8.596;2023-03-23T05:52:39;6.32;;;2.75;;
21661;SDS011;10992;48.170;8.596;2023-03-23T05:55:09;2.60;;;2.03;;
21661;SDS011;10992;48.170;8.596;2023-03-23T05:57:37;2.55;;;2.05;;
21661;SDS011;10992;48.170;8.596;2023-03-23T06:00:07;2.60;;;2.20;;
21661;SDS011;10992;48.170;8.596;2023-03-23T06:02:47;3.55;;;2.55;;
21661;SDS011;10992;48.170;8.596;2023-03-23T06:05:25;4.80;;;2.47;;
21661;SDS011;10992;48.170;8.596;2023-03-23T06:07:53;3.13;;;1.95;;
21661;SDS011;10992;48.170;8.596;2023-03-23T06:10:19;4.75;;;2.47;;
21661;SDS011;10992;48.170;8.596;2023-03-23T06:12:59;5.82;;;2.90;;
21661;SDS011;10992;48.170;8.596;2023-03-23T06:15:34;3.08;;;2.10;;
21661;SDS011;10992;48.170;8.596;2023-03-23T06:18:01;3.10;;;2.05;;
21661;SDS011;10992;48.170;8.596;2023-03-23T06:20:41;5.15;;;2.38;;
21661;SDS011;10992;48.170;8.596;2023-03-23T06:23:35;4.45;;;2.67;;
21661;SDS011;10992;48.170;8.596;2023-03-23T06:26:06;4.63;;;2.83;;
21661;SDS011;10992;48.170;8.596;2023-03-23T06:28:36;3.00;;;2.20;;
21661;SDS011;10992;48.170;8.596;2023-03-23T06:31:04;4.53;;;2.80;;
21661;SDS011;10992;48.170;8.596;2023-03-23T06:33:34;6.22;;;2.60;;
21661;SDS011;10992;48.170;8.596;2023-03-23T06:36:24;4.40;;;2.47;;
21661;SDS011;10992;48.170;8.596;2023-03-23T06:39:10;2.92;;;2.17;;
21661;SDS011;10992;48.170;8.596;2023-03-23T06:41:50;3.65;;;2.67;;
21661;SDS011;10992;48.170;8.596;2023-03-23T06:44:16;4.55;;;2.53;;
21661;SDS011;10992;48.170;8.596;2023-03-23T06:46:42;4.32;;;2.50;;
21661;SDS011;10992;48.170;8.596;2023-03-23T06:49:18;2.80;;;2.28;;
21661;SDS011;10992;48.170;8.596;2023-03-23T06:51:52;5.75;;;2.75;;
21661;SDS011;10992;48.170;8.596;2023-03-23T06:54:19;3.65;;;2.53;;
21661;SDS011;10992;48.170;8.596;2023-03-23T06:56:45;4.65;;;2.40;;
21661;SDS011;10992;48.170;8.596;2023-03-23T06:59:10;3.53;;;2.50;;
21661;SDS011;10992;48.170;8.596;2023-03-23T07:01:38;4.65;;;2.92;;
21661;SDS011;10992;48.170;8.596;2023-03-23T07:04:04;4.60;;;2.85;;
21661;SDS011;10992;48.170;8.596;2023-03-23T07:06:49;4.25;;;2.47;;
21661;SDS011;10992;48.170;8.596;2023-03-23T07:09:15;3.55;;;2.70;;
21661;SDS011;10992;48.170;8.596;2023-03-23T07:11:41;4.07;;;2.67;;
21661;SDS011;10992;48.170;8.596;2023-03-23T07:14:19;20.38;;;8.10;;
21661;SDS011;10992;48.170;8.596;2023-03-23T07:16:45;27.73;;;11.10;;
21661;SDS011;10992;48.170;8.596;2023-03-23T07:19:12;16.92;;;7.75;;
21661;SDS011;10992;48.170;8.596;2023-03-23T07:21:38;7.35;;;3.35;;
21661;SDS011;10992;48.170;8.596;2023-03-23T07:24:04;3.13;;;2.70;;
21661;SDS011;10992;48.170;8.596;2023-03-23T07:26:51;2.30;;;1.88;;
21661;SDS011;10992;48.170;8.596;2023-03-23T07:29:18;3.97;;;2.20;;
21661;SDS011;10992;48.170;8.596;2023-03-23T07:31:47;7.38;;;2.35;;
21661;SDS011;10992;48.170;8.596;2023-03-23T07:34:14;3.85;;;2.65;;
21661;SDS011;10992;48.170;8.596;2023-03-23T07:36:48;5.43;;;2.58;;
21661;SDS011;10992;48.170;8.596;2023-03-23T07:39:15;3.35;;;2.25;;
21661;SDS011;10992;48.170;8.596;2023-03-23T07:41:42;2.85;;;1.98;;
21661;SDS011;10992;48.170;8.596;2023-03-23T07:44:17;3.60;;;2.75;;
21661;SDS011;10992;48.170;8.596;2023-03-23T07:46:43;8.82;;;2.70;;
21661;SDS011;10992;48.170;8.596;2023-03-23T07:49:12;6.53;;;2.05;;
21661;SDS011;10992;48.170;8.596;2023-03-23T07:51:48;3.45;;;2.65;;
21661;SDS011;10992;48.170;8.596;2023-03-23T07:54:16;3.05;;;2.35;;
21661;SDS011;10992;48.170;8.596;2023-03-23T07:57:02;3.45;;;2.30;;
21661;SDS011;10992;48.170;8.596;2023-03-23T07:59:35;5.35;;;2.55;;
21661;SDS011;10992;48.170;8.596;2023-03-23T08:02:02;3.45;;;2.20;;
21661;SDS011;10992;48.170;8.596;2023-03-23T08:05:01;3.45;;;2.33;;
21661;SDS011;10992;48.170;8.596;2023-03-23T08:07:44;4.85;;;1.92;;
21661;SDS011;10992;48.170;8.596;2023-03-23T08:10:22;4.22;;;1.90;;
21661;SDS011;10992;48.170;8.596;2023-03-23T08:13:21;2.80;;;1.70;;
21661;SDS011;10992;48.170;8.596;2023-03-23T08:16:19;3.85;;;1.48;;
21661;SDS011;10992;48.170;8.596;2023-03-23T08:19:07;3.10;;;1.75;;
21661;SDS011;10992;48.170;8.596;2023-03-23T08:21:46;4.72;;;2.50;;
21661;SDS011;10992;48.170;8.596;2023-03-23T08:24:22;2.38;;;1.77;;
21661;SDS011;10992;48.170;8.596;2023-03-23T08:26:55;2.55;;;1.50;;
21661;SDS011;10992;48.170;8.596;2023-03-23T08:29:40;3.60;;;2.00;;
21661;SDS011;10992;48.170;8.596;2023-03-23T08:32:05;3.90;;;2.38;;
21661;SDS011;10992;48.170;8.596;2023-03-23T08:34:44;3.47;;;2.65;;
21661;SDS011;10992;48.170;8.596;2023-03-23T08:37:28;4.03;;;1.65;;
21661;SDS011;10992;48.170;8.596;2023-03-23T08:40:13;2.92;;;2.22;;
21661;SDS011;10992;48.170;8.596;2023-03-23T08:42:58;2.92;;;1.55;;
21661;SDS011;10992;48.170;8.596;2023-03-23T08:45:36;3.90;;;1.58;;
21661;SDS011;10992;48.170;8.596;2023-03-23T08:48:09;3.40;;;2.13;;
21661;SDS011;10992;48.170;8.596;2023-03-23T08:50:51;3.08;;;1.63;;
21661;SDS011;10992;48.170;8.596;2023-03-23T08:53:44;2.85;;;1.50;;
21661;SDS011;10992;48.170;8.596;2023-03-23T08:56:29;2.20;;;1.40;;
21661;SDS011;10992;48.170;8.596;2023-03-23T08:59:03;3.10;;;1.30;;
21661;SDS011;10992;48.170;8.596;2023-03-23T09:01:48;2.22;;;1.58;;
21661;SDS011;10992;48.170;8.596;2023-03-23T09:04:40;3.00;;;1.70;;
21661;SDS011;10992;48.170;8.596;2023-03-23T09:07:20;2.38;;;1.00;;
21661;SDS011;10992;48.170;8.596;2023-03-23T09:09:46;1.48;;;1.10;;
21661;SDS011;10992;48.170;8.596;2023-03-23T09:12:12;1.67;;;1.25;;
21661;SDS011;10992;48.170;8.596;2023-03-23T09:14:39;2.00;;;1.10;;
21661;SDS011;10992;48.170;8.596;2023-03-23T09:17:05;2.08;;;1.30;;
21661;SDS011;10992;48.170;8.596;2023-03-23T09:19:33;3.33;;;1.00;;
21661;SDS011;10992;48.170;8.596;2023-03-23T09:22:00;6.65;;;1.55;;
21661;SDS011;10992;48.170;8.596;2023-03-23T09:24:27;4.18;;;1.45;;
21661;SDS011;10992;48.170;8.596;2023-03-23T09:26:53;2.20;;;1.38;;
21661;SDS011;10992;48.170;8.596;2023-03-23T09:29:18;4.18;;;1.70;;
21661;SDS011;10992;48.170;8.596;2023-03-23T09:31:46;3.10;;;1.42;;
21661;SDS011;10992;48.170;8.596;2023-03-23T09:34:12;2.28;;;1.75;;
21661;SDS011;10992;48.170;8.596;2023-03-23T09:36:41;1.83;;;1.50;;
21661;SDS011;10992;48.170;8.596;2023-03-23T09:39:08;1.38;;;1.25;;
21661;SDS011;10992;48.170;8.596;2023-03-23T09:44:14;3.40;;;1.30;;
21661;SDS011;10992;48.170;8.596;2023-03-23T09:46:52;2.58;;;1.50;;
21661;SDS011;10992;48.170;8.596;2023-03-23T09:49:36;1.83;;;1.27;;
21661;SDS011;10992;48.170;8.596;2023-03-23T09:52:14;1.63;;;1.20;;
21661;SDS011;10992;48.170;8.596;2023-03-23T09:54:48;2.35;;;1.27;;
21661;SDS011;10992;48.170;8.596;2023-03-23T09:57:20;1.58;;;1.13;;
21661;SDS011;10992;48.170;8.596;2023-03-23T09:59:59;2.88;;;1.40;;
21661;SDS011;10992;48.170;8.596;2023-03-23T10:02:48;3.20;;;1.35;;
21661;SDS011;10992;48.170;8.596;2023-03-23T10:07:56;2.00;;;1.40;;
21661;SDS011;10992;48.170;8.596;2023-03-23T10:11:07;3.88;;;1.63;;
21661;SDS011;10992;48.170;8.596;2023-03-23T10:16:22;2.45;;;1.60;;
21661;SDS011;10992;48.170;8.596;2023-03-23T10:18:56;3.08;;;1.38;;
21661;SDS011;10992;48.170;8.596;2023-03-23T10:21:24;2.47;;;1.60;;
21661;SDS011;10992;48.170;8.596;2023-03-23T10:23:58;4.35;;;2.90;;
21661;SDS011;10992;48.170;8.596;2023-03-23T10:29:30;3.42;;;1.58;;
21661;SDS011;10992;48.170;8.596;2023-03-23T10:32:16;2.95;;;1.70;;
21661;SDS011;10992;48.170;8.596;2023-03-23T10:34:52;3.85;;;1.42;;
21661;SDS011;10992;48.170;8.596;2023-03-23T10:37:30;2.92;;;1.40;;
21661;SDS011;10992;48.170;8.596;2023-03-23T10:40:02;2.28;;;1.10;;
21661;SDS011;10992;48.170;8.596;2023-03-23T10:42:35;4.90;;;2.67;;
21661;SDS011;10992;48.170;8.596;2023-03-23T10:45:19;3.25;;;1.70;;
21661;SDS011;10992;48.170;8.596;2023-03-23T10:50:38;2.63;;;1.35;;
21661;SDS011;10992;48.170;8.596;2023-03-23T10:53:13;3.60;;;1.40;;
21661;SDS011;10992;48.170;8.596;2023-03-23T10:55:53;3.13;;;1.85;;
21661;SDS011;10992;48.170;8.596;2023-03-23T10:58:31;4.13;;;1.50;;
21661;SDS011;10992;48.170;8.596;2023-03-23T11:00:59;1.75;;;1.25;;
21661;SDS011;10992;48.170;8.596;2023-03-23T11:03:42;2.88;;;1.23;;
21661;SDS011;10992;48.170;8.596;2023-03-23T11:06:11;1.63;;;1.40;;
21661;SDS011;10992;48.170;8.596;2023-03-23T11:08:47;2.22;;;1.02;;
21661;SDS011;10992;48.170;8.596;2023-03-23T11:11:30;1.85;;;1.30;;
21661;SDS011;10992;48.170;8.596;2023-03-23T11:13:58;3.92;;;1.50;;
21661;SDS011;10992;48.170;8.596;2023-03-23T11:16:30;2.60;;;1.55;;
21661;SDS011;10992;48.170;8.596;2023-03-23T11:18:58;6.80;;;1.50;;
21661;SDS011;10992;48.170;8.596;2023-03-23T11:21:25;2.40;;;1.50;;
21661;SDS011;10992;48.170;8.596;2023-03-23T11:23:54;2.65;;;1.33;;
21661;SDS011;10992;48.170;8.596;2023-03-23T11:26:28;2.83;;;1.58;;
21661;SDS011;10992;48.170;8.596;2023-03-23T11:31:45;5.30;;;1.45;;
21661;SDS011;10992;48.170;8.596;2023-03-23T11:35:00;2.42;;;1.27;;
21661;SDS011;10992;48.170;8.596;2023-03-23T11:42:43;2.80;;;1.08;;
21661;SDS011;10992;48.170;8.596;2023-03-23T11:45:16;3.00;;;1.40;;
21661;SDS011;10992;48.170;8.596;2023-03-23T11:50:52;4.22;;;1.52;;
21661;SDS011;10992;48.170;8.596;2023-03-23T11:53:35;3.83;;;1.52;;
21661;SDS011;10992;48.170;8.596;2023-03-23T11:56:06;4.20;;;1.50;;
21661;SDS011;10992;48.170;8.596;2023-03-23T11:58:41;1.98;;;1.23;;
21661;SDS011;10992;48.170;8.596;2023-03-23T12:09:33;3.50;;;1.50;;
21661;SDS011;10992;48.170;8.596;2023-03-23T12:12:24;1.90;;;1.20;;
21661;SDS011;10992;48.170;8.596;2023-03-23T12:15:17;3.80;;;1.60;;
21661;SDS011;10992;48.170;8.596;2023-03-23T12:17:54;2.00;;;1.50;;
21661;SDS011;10992;48.170;8.596;2023-03-23T12:20:41;2.25;;;1.20;;
21661;SDS011;10992;48.170;8.596;2023-03-23T12:23:46;3.53;;;1.50;;
21661;SDS011;10992;48.170;8.596;2023-03-23T12:26:39;1.90;;;1.20;;
21661;SDS011;10992;48.170;8.596;2023-03-23T12:29:18;2.33;;;1.30;;
21661;SDS011;10992;48.170;8.596;2023-03-23T12:37:23;2.15;;;1.63;;
21661;SDS011;10992;48.170;8.596;2023-03-23T12:48:07;4.43;;;2.00;;
21661;SDS011;10992;48.170;8.596;2023-03-23T12:50:59;3.00;;;1.60;;
21661;SDS011;10992;48.170;8.596;2023-03-23T12:53:51;2.30;;;1.48;;
21661;SDS011;10992;48.170;8.596;2023-03-23T12:58:50;2.97;;;1.65;;
21661;SDS011;10992;48.170;8.596;2023-03-23T13:01:24;3.10;;;1.50;;
21661;SDS011;10992;48.170;8.596;2023-03-23T13:06:39;3.60;;;1.80;;
21661;SDS011;10992;48.170;8.596;2023-03-23T13:11:44;3.20;;;2.08;;
21661;SDS011;10992;48.170;8.596;2023-03-23T13:19:37;3.20;;;1.85;;
21661;SDS011;10992;48.170;8.596;2023-03-23T13:22:29;1.83;;;1.48;;
21661;SDS011;10992;48.170;8.596;2023-03-23T13:28:02;5.35;;;2.30;;
21661;SDS011;10992;48.170;8.596;2023-03-23T13:30:29;2.85;;;1.60;;
21661;SDS011;10992;48.170;8.596;2023-03-23T13:33:05;3.83;;;1.63;;
21661;SDS011;10992;48.170;8.596;2023-03-23T13:35:35;4.32;;;1.42;;
21661;SDS011;10992;48.170;8.596;2023-03-23T13:38:15;6.82;;;1.70;;
21661;SDS011;10992;48.170;8.596;2023-03-23T13:40:51;2.20;;;1.70;;
21661;SDS011;10992;48.170;8.596;2023-03-23T13:43:52;2.58;;;1.63;;
21661;SDS011;10992;48.170;8.596;2023-03-23T13:51:36;7.97;;;2.20;;
21661;SDS011;10992;48.170;8.596;2023-03-23T13:57:19;4.32;;;2.30;;
21661;SDS011;10992;48.170;8.596;2023-03-23T13:59:49;3.30;;;2.13;;
21661;SDS011;10992;48.170;8.596;2023-03-23T14:07:59;2.83;;;1.77;;
21661;SDS011;10992;48.170;8.596;2023-03-23T14:16:04;2.67;;;1.90;;
21661;SDS011;10992;48.170;8.596;2023-03-23T14:18:41;2.75;;;1.70;;
21661;SDS011;10992;48.170;8.596;2023-03-23T14:21:16;2.25;;;1.60;;
21661;SDS011;10992;48.170;8.596;2023-03-23T14:23:47;3.03;;;1.80;;
21661;SDS011;10992;48.170;8.596;2023-03-23T14:26:17;3.45;;;1.60;;
21661;SDS011;10992;48.170;8.596;2023-03-23T14:28:45;3.60;;;1.80;;
21661;SDS011;10992;48.170;8.596;2023-03-23T14:31:20;3.95;;;1.67;;
21661;SDS011;10992;48.170;8.596;2023-03-23T14:33:48;6.72;;;2.85;;
21661;SDS011;10992;48.170;8.596;2023-03-23T14:36:34;3.22;;;2.00;;
21661;SDS011;10992;48.170;8.596;2023-03-23T14:41:36;2.92;;;1.98;;
21661;SDS011;10992;48.170;8.596;2023-03-23T14:44:03;3.53;;;2.35;;
21661;SDS011;10992;48.170;8.596;2023-03-23T14:46:34;4.68;;;2.03;;
21661;SDS011;10992;48.170;8.596;2023-03-23T14:49:01;3.67;;;1.92;;
21661;SDS011;10992;48.170;8.596;2023-03-23T14:51:31;2.60;;;1.80;;
21661;SDS011;10992;48.170;8.596;2023-03-23T14:53:58;3.47;;;2.00;;
21661;SDS011;10992;48.170;8.596;2023-03-23T14:56:32;4.15;;;1.60;;
21661;SDS011;10992;48.170;8.596;2023-03-23T14:59:03;3.53;;;2.10;;
21661;SDS011;10992;48.170;8.596;2023-03-23T15:01:31;2.75;;;1.50;;
21661;SDS011;10992;48.170;8.596;2023-03-23T15:03:59;2.55;;;1.90;;
21661;SDS011;10992;48.170;8.596;2023-03-23T15:06:30;3.85;;;1.98;;
21661;SDS011;10992;48.170;8.596;2023-03-23T15:09:00;2.85;;;2.25;;
21661;SDS011;10992;48.170;8.596;2023-03-23T15:11:30;2.70;;;2.03;;
21661;SDS011;10992;48.170;8.596;2023-03-23T15:13:58;3.10;;;2.05;;
21661;SDS011;10992;48.170;8.596;2023-03-23T15:16:32;3.58;;;2.10;;
21661;SDS011;10992;48.170;8.596;2023-03-23T15:19:04;2.78;;;2.03;;
21661;SDS011;10992;48.170;8.596;2023-03-23T15:21:45;5.18;;;2.33;;
21661;SDS011;10992;48.170;8.596;2023-03-23T15:24:21;4.25;;;1.85;;
21661;SDS011;10992;48.170;8.596;2023-03-23T15:27:15;4.60;;;2.05;;
21661;SDS011;10992;48.170;8.596;2023-03-23T15:29:47;3.03;;;1.95;;
21661;SDS011;10992;48.170;8.596;2023-03-23T15:32:19;3.72;;;1.85;;
21661;SDS011;10992;48.170;8.596;2023-03-23T15:34:46;3.83;;;2.00;;
21661;SDS011;10992;48.170;8.596;2023-03-23T15:37:20;7.22;;;2.28;;
21661;SDS011;10992;48.170;8.596;2023-03-23T15:39:50;2.10;;;1.65;;
21661;SDS011;10992;48.170;8.596;2023-03-23T15:47:47;5.53;;;1.92;;
21661;SDS011;10992;48.170;8.596;2023-03-23T15:50:16;2.38;;;1.80;;
21661;SDS011;10992;48.170;8.596;2023-03-23T15:52:45;3.33;;;2.30;;
21661;SDS011;10992;48.170;8.596;2023-03-23T15:55:24;5.78;;;2.80;;
21661;SDS011;10992;48.170;8.596;2023-03-23T15:57:52;4.45;;;2.65;;
21661;SDS011;10992;48.170;8.596;2023-03-23T16:00:24;4.05;;;1.95;;
21661;SDS011;10992;48.170;8.596;2023-03-23T16:02:58;2.40;;;1.85;;
21661;SDS011;10992;48.170;8.596;2023-03-23T16:05:29;7.25;;;3.85;;
21661;SDS011;10992;48.170;8.596;2023-03-23T16:07:58;3.30;;;2.08;;
21661;SDS011;10992;48.170;8.596;2023-03-23T16:10:27;3.53;;;2.17;;
21661;SDS011;10992;48.170;8.596;2023-03-23T16:12:55;2.88;;;1.83;;
21661;SDS011;10992;48.170;8.596;2023-03-23T16:15:22;4.45;;;3.20;;
21661;SDS011;10992;48.170;8.596;2023-03-23T16:17:50;3.10;;;2.15;;
21661;SDS011;10992;48.170;8.596;2023-03-23T16:20:18;5.10;;;3.08;;
21661;SDS011;10992;48.170;8.596;2023-03-23T16:22:47;5.97;;;3.03;;
21661;SDS011;10992;48.170;8.596;2023-03-23T16:25:16;3.05;;;1.85;;
21661;SDS011;10992;48.170;8.596;2023-03-23T16:27:44;5.07;;;2.78;;
21661;SDS011;10992;48.170;8.596;2023-03-23T16:30:22;3.88;;;2.13;;
21661;SDS011;10992;48.170;8.596;2023-03-23T16:32:51;4.90;;;1.98;;
21661;SDS011;10992;48.170;8.596;2023-03-23T16:35:22;4.03;;;2.40;;
21661;SDS011;10992;48.170;8.596;2023-03-23T16:37:50;4.38;;;2.35;;
21661;SDS011;10992;48.170;8.596;2023-03-23T16:40:34;4.00;;;2.05;;
21661;SDS011;10992;48.170;8.596;2023-03-23T16:43:03;4.25;;;2.30;;
21661;SDS011;10992;48.170;8.596;2023-03-23T16:45:35;4.38;;;1.95;;
21661;SDS011;10992;48.170;8.596;2023-03-23T16:48:07;2.22;;;1.83;;
21661;SDS011;10992;48.170;8.596;2023-03-23T16:50:35;3.45;;;2.28;;
21661;SDS011;10992;48.170;8.596;2023-03-23T16:53:04;6.57;;;2.88;;
21661;SDS011;10992;48.170;8.596;2023-03-23T16:55:34;4.00;;;2.22;;
21661;SDS011;10992;48.170;8.596;2023-03-23T16:58:02;3.65;;;2.70;;
21661;SDS011;10992;48.170;8.596;2023-03-23T17:00:43;4.78;;;3.40;;
21661;SDS011;10992;48.170;8.596;2023-03-23T17:03:19;3.83;;;2.90;;
21661;SDS011;10992;48.170;8.596;2023-03-23T17:05:48;4.47;;;2.30;;
21661;SDS011;10992;48.170;8.596;2023-03-23T17:08:17;2.83;;;2.28;;
21661;SDS011;10992;48.170;8.596;2023-03-23T17:10:46;3.08;;;2.05;;
21661;SDS011;10992;48.170;8.596;2023-03-23T17:13:13;3.10;;;2.33;;
21661;SDS011;10992;48.170;8.596;2023-03-23T17:15:41;3.00;;;2.20;;
21661;SDS011;10992;48.170;8.596;2023-03-23T17:18:12;4.82;;;2.38;;
21661;SDS011;10992;48.170;8.596;2023-03-23T17:20:40;3.47;;;2.00;;